Portada
METAR-TAF:

METAR-TAF

Aeropuertos :

Aeropuerto Internacional de Yamena

Yamena, Chad

latitud: 12-08N, longitud: 015-02E, altitud: 295 m

Observación

El informe se hizo hace 15 horas y 14 minutos, a las 05:00 UTC
Viento 10 kt del sur-sureste
Temperatura 23°C
Humedad 89%
Presión 1010 hPa
Visibilidad 10 km o más
Escasas nubes a una altura de 5000 ft, Cumulonimbus.
tormenta

METAR: FTTJ 210500Z 16010KT 9999 TS FEW050CB 23/21 Q1010 TEMPO 07015G31KT 4000 TSRA

Hora: 21:14 (20:14 UTC)

Pronóstico

El informe se hizo hace 15 horas y 14 minutos, a las 05:00 UTC
Pronóstico válido del 21 a las 06 UTC al 22 a las 12 UTC
Viento 8 kt del sur-suroeste
Visibilidad 10 km o más
Escasas nubes a una altura de 3000 ft
Escasas nubes a una altura de 5000 ft, Cumulonimbus.
Temporalmente
del 21 a las 06 UTC al 21 a las 13 UTC
Visibilidad: 4000 m
tormenta, lluvia

TAF: FTTJ 210500Z 2106/2212 20008KT 9999 FEW030 FEW050CB TEMPO 2106/2113 4000 TSRA

Observaciones y pronósticos meteorológicos de más de 4000 aeropuertos (mensajes METAR y TAF).

Los puntos amarillos y rojos representan las estaciones disponibles.

Ponga el ratón en el punto deseado para ver el nombre de la estación.

Haga clic para ver las observaciones y los pronósticos meteorológicos.

Para cambiar el mapa : haga clic en los botones verdes con una cruz de color negro para hacer un zoom, en el botón verde con un guión para alejar o en las flechas verdes para mapas adyacentes.


METAR-TAF: